sensor_id;sensor_type;location;lat;lon;timestamp;pressure;altitude;pressure_sealevel;temperature;humidity
50859;BME280;36826;47.514;19.056;2022-12-24T00:01:17;99531.53;;;10.51;100.00
50859;BME280;36826;47.514;19.056;2022-12-24T00:03:43;99532.59;;;9.75;100.00
50859;BME280;36826;47.514;19.056;2022-12-24T00:06:15;99534.75;;;9.99;100.00
50859;BME280;36826;47.514;19.056;2022-12-24T00:08:41;99532.94;;;9.90;100.00
50859;BME280;36826;47.514;19.056;2022-12-24T00:11:06;99531.84;;;10.66;100.00
50859;BME280;36826;47.514;19.056;2022-12-24T00:13:32;99525.00;;;10.72;100.00
50859;BME280;36826;47.514;19.056;2022-12-24T00:15:58;99524.88;;;10.73;100.00
50859;BME280;36826;47.514;19.056;2022-12-24T00:18:24;99529.94;;;10.77;100.00
50859;BME280;36826;47.514;19.056;2022-12-24T00:20:50;99529.25;;;10.74;100.00
50859;BME280;36826;47.514;19.056;2022-12-24T00:23:16;99536.88;;;10.69;100.00
50859;BME280;36826;47.514;19.056;2022-12-24T00:25:42;99530.59;;;10.42;100.00
50859;BME280;36826;47.514;19.056;2022-12-24T00:28:08;99522.66;;;10.87;100.00
50859;BME280;36826;47.514;19.056;2022-12-24T00:30:33;99528.53;;;11.09;100.00
50859;BME280;36826;47.514;19.056;2022-12-24T00:33:01;99519.13;;;10.68;100.00
50859;BME280;36826;47.514;19.056;2022-12-24T00:35:26;99527.84;;;11.07;100.00
50859;BME280;36826;47.514;19.056;2022-12-24T00:37:52;99530.59;;;10.79;100.00
50859;BME280;36826;47.514;19.056;2022-12-24T00:40:17;99542.56;;;11.02;100.00
50859;BME280;36826;47.514;19.056;2022-12-24T00:42:43;99546.13;;;11.11;100.00
50859;BME280;36826;47.514;19.056;2022-12-24T00:45:09;99542.66;;;11.19;100.00
50859;BME280;36826;47.514;19.056;2022-12-24T00:47:35;99575.63;;;11.29;100.00
50859;BME280;36826;47.514;19.056;2022-12-24T00:50:00;99582.19;;;11.17;100.00
50859;BME280;36826;47.514;19.056;2022-12-24T00:52:26;99571.59;;;11.33;100.00
50859;BME280;36826;47.514;19.056;2022-12-24T00:54:52;99570.72;;;11.07;100.00
50859;BME280;36826;47.514;19.056;2022-12-24T00:57:17;99573.47;;;10.79;100.00
50859;BME280;36826;47.514;19.056;2022-12-24T00:59:43;99566.44;;;10.78;100.00
50859;BME280;36826;47.514;19.056;2022-12-24T01:02:09;99560.31;;;10.67;100.00
50859;BME280;36826;47.514;19.056;2022-12-24T01:04:34;99546.59;;;9.59;100.00
50859;BME280;36826;47.514;19.056;2022-12-24T01:07:18;99531.63;;;8.99;100.00
50859;BME280;36826;47.514;19.056;2022-12-24T01:09:43;99520.97;;;8.79;100.00
50859;BME280;36826;47.514;19.056;2022-12-24T01:12:09;99510.81;;;9.12;100.00
50859;BME280;36826;47.514;19.056;2022-12-24T01:14:36;99506.88;;;9.16;100.00
50859;BME280;36826;47.514;19.056;2022-12-24T01:17:01;99504.31;;;9.25;100.00
50859;BME280;36826;47.514;19.056;2022-12-24T01:19:27;99496.97;;;9.46;100.00
50859;BME280;36826;47.514;19.056;2022-12-24T01:21:52;99485.94;;;9.59;100.00
50859;BME280;36826;47.514;19.056;2022-12-24T01:24:18;99494.09;;;10.13;100.00
50859;BME280;36826;47.514;19.056;2022-12-24T01:26:43;99478.13;;;10.50;100.00
50859;BME280;36826;47.514;19.056;2022-12-24T01:29:09;99483.25;;;10.61;100.00
50859;BME280;36826;47.514;19.056;2022-12-24T01:31:34;99469.09;;;9.49;100.00
50859;BME280;36826;47.514;19.056;2022-12-24T01:33:59;99470.31;;;9.55;100.00
50859;BME280;36826;47.514;19.056;2022-12-24T01:36:25;99449.13;;;9.43;100.00
50859;BME280;36826;47.514;19.056;2022-12-24T01:38:50;99452.88;;;9.23;100.00
50859;BME280;36826;47.514;19.056;2022-12-24T01:41:19;99474.63;;;9.38;100.00
50859;BME280;36826;47.514;19.056;2022-12-24T01:44:20;99479.53;;;9.42;100.00
50859;BME280;36826;47.514;19.056;2022-12-24T01:46:59;99485.19;;;9.67;100.00
50859;BME280;36826;47.514;19.056;2022-12-24T01:49:27;99483.00;;;9.52;100.00
50859;BME280;36826;47.514;19.056;2022-12-24T01:51:56;99465.47;;;9.30;100.00
50859;BME280;36826;47.514;19.056;2022-12-24T01:56:57;99471.13;;;10.21;100.00
50859;BME280;36826;47.514;19.056;2022-12-24T01:59:25;99471.97;;;9.28;100.00
50859;BME280;36826;47.514;19.056;2022-12-24T02:01:52;99482.63;;;9.38;100.00
50859;BME280;36826;47.514;19.056;2022-12-24T02:06:52;99469.72;;;9.33;100.00
50859;BME280;36826;47.514;19.056;2022-12-24T02:09:18;99476.00;;;9.79;100.00
50859;BME280;36826;47.514;19.056;2022-12-24T02:11:44;99469.13;;;9.39;100.00
50859;BME280;36826;47.514;19.056;2022-12-24T02:14:10;99476.56;;;8.88;100.00
50859;BME280;36826;47.514;19.056;2022-12-24T02:16:49;99484.84;;;8.95;100.00
50859;BME280;36826;47.514;19.056;2022-12-24T02:24:55;99498.84;;;9.26;100.00
50859;BME280;36826;47.514;19.056;2022-12-24T02:30:00;99529.78;;;9.76;100.00
50859;BME280;36826;47.514;19.056;2022-12-24T02:35:22;99496.38;;;10.36;100.00
50859;BME280;36826;47.514;19.056;2022-12-24T02:37:57;99500.09;;;10.71;100.00
50859;BME280;36826;47.514;19.056;2022-12-24T02:40:27;99489.81;;;10.85;100.00
50859;BME280;36826;47.514;19.056;2022-12-24T02:43:09;99487.13;;;10.85;100.00
50859;BME280;36826;47.514;19.056;2022-12-24T02:45:37;99479.34;;;10.55;100.00
50859;BME280;36826;47.514;19.056;2022-12-24T02:48:05;99477.72;;;10.81;100.00
50859;BME280;36826;47.514;19.056;2022-12-24T02:50:31;99487.75;;;10.79;100.00
50859;BME280;36826;47.514;19.056;2022-12-24T02:52:58;99475.75;;;10.47;100.00
50859;BME280;36826;47.514;19.056;2022-12-24T03:01:26;99495.50;;;10.18;100.00
50859;BME280;36826;47.514;19.056;2022-12-24T03:09:12;99503.34;;;11.01;100.00
50859;BME280;36826;47.514;19.056;2022-12-24T03:11:47;99514.97;;;11.10;100.00
50859;BME280;36826;47.514;19.056;2022-12-24T03:14:15;99524.97;;;11.26;100.00
50859;BME280;36826;47.514;19.056;2022-12-24T03:16:42;99526.19;;;11.32;100.00
50859;BME280;36826;47.514;19.056;2022-12-24T03:19:09;99510.31;;;11.39;100.00
50859;BME280;36826;47.514;19.056;2022-12-24T03:21:37;99502.19;;;11.30;100.00
50859;BME280;36826;47.514;19.056;2022-12-24T03:24:04;99484.69;;;10.37;100.00
50859;BME280;36826;47.514;19.056;2022-12-24T03:26:31;99492.50;;;10.03;100.00
50859;BME280;36826;47.514;19.056;2022-12-24T03:28:57;99477.84;;;10.07;100.00
50859;BME280;36826;47.514;19.056;2022-12-24T03:31:22;99470.69;;;9.97;100.00
50859;BME280;36826;47.514;19.056;2022-12-24T03:33:49;99479.94;;;9.75;100.00
50859;BME280;36826;47.514;19.056;2022-12-24T03:36:15;99478.06;;;9.58;100.00
50859;BME280;36826;47.514;19.056;2022-12-24T03:38:41;99477.50;;;9.82;100.00
50859;BME280;36826;47.514;19.056;2022-12-24T03:41:07;99488.91;;;9.84;100.00
50859;BME280;36826;47.514;19.056;2022-12-24T03:43:32;99486.19;;;10.22;100.00
50859;BME280;36826;47.514;19.056;2022-12-24T03:46:02;99493.72;;;10.72;100.00
50859;BME280;36826;47.514;19.056;2022-12-24T03:48:32;99497.84;;;10.85;100.00
50859;BME280;36826;47.514;19.056;2022-12-24T03:50:58;99506.41;;;11.07;100.00
50859;BME280;36826;47.514;19.056;2022-12-24T03:53:23;99520.31;;;11.28;100.00
50859;BME280;36826;47.514;19.056;2022-12-24T03:55:49;99521.72;;;11.41;100.00
50859;BME280;36826;47.514;19.056;2022-12-24T03:58:14;99511.66;;;11.43;100.00
50859;BME280;36826;47.514;19.056;2022-12-24T04:00:39;99523.56;;;11.14;100.00
50859;BME280;36826;47.514;19.056;2022-12-24T04:03:05;99517.97;;;11.33;100.00
50859;BME280;36826;47.514;19.056;2022-12-24T04:05:30;99518.97;;;11.32;100.00
50859;BME280;36826;47.514;19.056;2022-12-24T04:07:56;99514.09;;;11.28;100.00
50859;BME280;36826;47.514;19.056;2022-12-24T04:10:21;99519.09;;;11.04;100.00
50859;BME280;36826;47.514;19.056;2022-12-24T04:12:46;99511.63;;;10.72;100.00
50859;BME280;36826;47.514;19.056;2022-12-24T04:15:12;99510.84;;;11.16;100.00
50859;BME280;36826;47.514;19.056;2022-12-24T04:17:37;99527.22;;;11.13;100.00
50859;BME280;36826;47.514;19.056;2022-12-24T04:20:03;99520.06;;;10.77;100.00
50859;BME280;36826;47.514;19.056;2022-12-24T04:22:28;99530.94;;;10.76;100.00
50859;BME280;36826;47.514;19.056;2022-12-24T04:24:54;99536.88;;;11.05;100.00
50859;BME280;36826;47.514;19.056;2022-12-24T04:27:19;99526.78;;;10.99;100.00
50859;BME280;36826;47.514;19.056;2022-12-24T04:29:45;99533.94;;;11.17;100.00
50859;BME280;36826;47.514;19.056;2022-12-24T04:32:10;99524.59;;;11.21;100.00
50859;BME280;36826;47.514;19.056;2022-12-24T04:34:36;99525.13;;;11.25;100.00
50859;BME280;36826;47.514;19.056;2022-12-24T04:37:02;99510.00;;;11.42;100.00
50859;BME280;36826;47.514;19.056;2022-12-24T04:39:28;99507.03;;;11.00;100.00
50859;BME280;36826;47.514;19.056;2022-12-24T04:41:53;99513.25;;;11.27;100.00
50859;BME280;36826;47.514;19.056;2022-12-24T04:44:19;99511.16;;;11.13;100.00
50859;BME280;36826;47.514;19.056;2022-12-24T04:46:44;99510.41;;;11.29;100.00
50859;BME280;36826;47.514;19.056;2022-12-24T04:49:10;99510.00;;;11.42;100.00
50859;BME280;36826;47.514;19.056;2022-12-24T04:51:35;99518.81;;;11.08;100.00
50859;BME280;36826;47.514;19.056;2022-12-24T04:54:01;99516.00;;;11.35;100.00
50859;BME280;36826;47.514;19.056;2022-12-24T04:56:30;99516.66;;;10.93;100.00
50859;BME280;36826;47.514;19.056;2022-12-24T04:58:55;99528.69;;;11.07;100.00
50859;BME280;36826;47.514;19.056;2022-12-24T05:01:24;99532.28;;;10.80;100.00
50859;BME280;36826;47.514;19.056;2022-12-24T05:03:50;99531.91;;;11.11;100.00
50859;BME280;36826;47.514;19.056;2022-12-24T05:06:21;99531.63;;;10.96;100.00
50859;BME280;36826;47.514;19.056;2022-12-24T05:08:47;99528.84;;;10.87;100.00
50859;BME280;36826;47.514;19.056;2022-12-24T05:11:13;99525.94;;;10.99;100.00
50859;BME280;36826;47.514;19.056;2022-12-24T05:13:41;99535.31;;;11.21;100.00
50859;BME280;36826;47.514;19.056;2022-12-24T05:16:07;99530.66;;;11.23;100.00
50859;BME280;36826;47.514;19.056;2022-12-24T05:18:33;99531.69;;;11.30;100.00
50859;BME280;36826;47.514;19.056;2022-12-24T05:20:59;99535.75;;;11.34;100.00
50859;BME280;36826;47.514;19.056;2022-12-24T05:23:25;99532.66;;;11.47;100.00
50859;BME280;36826;47.514;19.056;2022-12-24T05:26:41;99553.16;;;11.57;100.00
50859;BME280;36826;47.514;19.056;2022-12-24T05:29:09;99543.41;;;11.47;100.00
50859;BME280;36826;47.514;19.056;2022-12-24T05:31:37;99550.59;;;12.00;100.00
50859;BME280;36826;47.514;19.056;2022-12-24T05:34:04;99544.31;;;12.25;100.00
50859;BME280;36826;47.514;19.056;2022-12-24T05:36:30;99554.72;;;12.28;100.00
50859;BME280;36826;47.514;19.056;2022-12-24T05:38:56;99550.88;;;11.96;100.00
50859;BME280;36826;47.514;19.056;2022-12-24T05:41:24;99554.41;;;11.97;100.00
50859;BME280;36826;47.514;19.056;2022-12-24T05:43:49;99558.16;;;11.51;100.00
50859;BME280;36826;47.514;19.056;2022-12-24T05:46:17;99563.63;;;11.68;100.00
50859;BME280;36826;47.514;19.056;2022-12-24T05:48:46;99558.03;;;12.14;100.00
50859;BME280;36826;47.514;19.056;2022-12-24T05:51:13;99555.97;;;12.08;100.00
50859;BME280;36826;47.514;19.056;2022-12-24T05:53:39;99558.31;;;12.03;100.00
50859;BME280;36826;47.514;19.056;2022-12-24T05:56:06;99551.66;;;12.15;100.00
50859;BME280;36826;47.514;19.056;2022-12-24T05:58:32;99557.72;;;12.17;100.00
50859;BME280;36826;47.514;19.056;2022-12-24T06:00:59;99552.34;;;12.17;100.00
50859;BME280;36826;47.514;19.056;2022-12-24T06:03:25;99551.22;;;11.93;100.00
50859;BME280;36826;47.514;19.056;2022-12-24T06:06:01;99551.53;;;11.64;100.00
50859;BME280;36826;47.514;19.056;2022-12-24T06:08:27;99561.06;;;11.58;100.00
50859;BME280;36826;47.514;19.056;2022-12-24T06:10:57;99547.78;;;11.83;100.00
50859;BME280;36826;47.514;19.056;2022-12-24T06:13:23;99552.16;;;11.84;100.00
50859;BME280;36826;47.514;19.056;2022-12-24T06:15:50;99544.66;;;11.96;100.00
50859;BME280;36826;47.514;19.056;2022-12-24T06:18:15;99555.72;;;11.93;100.00
50859;BME280;36826;47.514;19.056;2022-12-24T06:20:41;99558.91;;;11.96;100.00
50859;BME280;36826;47.514;19.056;2022-12-24T06:23:06;99560.19;;;11.84;100.00
50859;BME280;36826;47.514;19.056;2022-12-24T06:25:33;99560.00;;;12.04;100.00
50859;BME280;36826;47.514;19.056;2022-12-24T06:27:58;99563.59;;;12.21;100.00
50859;BME280;36826;47.514;19.056;2022-12-24T06:30:23;99565.28;;;12.22;100.00
50859;BME280;36826;47.514;19.056;2022-12-24T06:32:49;99571.22;;;12.42;100.00
50859;BME280;36826;47.514;19.056;2022-12-24T06:35:14;99561.81;;;12.46;100.00
50859;BME280;36826;47.514;19.056;2022-12-24T06:37:40;99569.09;;;12.11;100.00
50859;BME280;36826;47.514;19.056;2022-12-24T06:40:06;99573.88;;;12.34;100.00
50859;BME280;36826;47.514;19.056;2022-12-24T06:42:31;99579.97;;;12.44;100.00
50859;BME280;36826;47.514;19.056;2022-12-24T06:44:57;99586.41;;;12.68;100.00
50859;BME280;36826;47.514;19.056;2022-12-24T06:47:22;99587.75;;;12.72;100.00
50859;BME280;36826;47.514;19.056;2022-12-24T06:49:47;99595.22;;;12.43;100.00
50859;BME280;36826;47.514;19.056;2022-12-24T06:52:13;99602.22;;;12.71;100.00
50859;BME280;36826;47.514;19.056;2022-12-24T06:54:38;99604.19;;;12.61;100.00
50859;BME280;36826;47.514;19.056;2022-12-24T06:57:04;99609.28;;;12.80;100.00
50859;BME280;36826;47.514;19.056;2022-12-24T06:59:31;99611.47;;;12.77;100.00
50859;BME280;36826;47.514;19.056;2022-12-24T07:01:56;99619.41;;;12.95;100.00
50859;BME280;36826;47.514;19.056;2022-12-24T07:04:21;99622.09;;;13.03;100.00
50859;BME280;36826;47.514;19.056;2022-12-24T07:06:47;99610.97;;;12.89;100.00
50859;BME280;36826;47.514;19.056;2022-12-24T07:09:12;99613.34;;;13.01;100.00
50859;BME280;36826;47.514;19.056;2022-12-24T07:11:38;99618.09;;;13.32;98.00
50859;BME280;36826;47.514;19.056;2022-12-24T07:14:04;99619.47;;;13.44;97.57
50859;BME280;36826;47.514;19.056;2022-12-24T07:16:29;99615.78;;;13.45;95.43
50859;BME280;36826;47.514;19.056;2022-12-24T07:18:56;99624.38;;;12.73;98.63
50859;BME280;36826;47.514;19.056;2022-12-24T07:21:21;99620.06;;;13.05;96.60
50859;BME280;36826;47.514;19.056;2022-12-24T07:23:47;99613.59;;;12.65;100.00
50859;BME280;36826;47.514;19.056;2022-12-24T07:26:12;99623.78;;;13.37;98.29
50859;BME280;36826;47.514;19.056;2022-12-24T07:28:38;99624.38;;;12.73;99.05
50859;BME280;36826;47.514;19.056;2022-12-24T07:31:03;99626.34;;;12.54;100.00
50859;BME280;36826;47.514;19.056;2022-12-24T07:33:29;99630.78;;;12.88;100.00
50859;BME280;36826;47.514;19.056;2022-12-24T07:35:59;99642.81;;;11.72;100.00
50859;BME280;36826;47.514;19.056;2022-12-24T07:38:25;99655.47;;;12.76;100.00
50859;BME280;36826;47.514;19.056;2022-12-24T07:40:51;99660.78;;;12.67;100.00
50859;BME280;36826;47.514;19.056;2022-12-24T07:43:16;99662.31;;;13.38;99.01
50859;BME280;36826;47.514;19.056;2022-12-24T07:45:42;99659.84;;;12.93;96.99
50859;BME280;36826;47.514;19.056;2022-12-24T07:48:07;99663.13;;;13.38;97.74
50859;BME280;36826;47.514;19.056;2022-12-24T07:50:33;99671.16;;;13.13;96.55
50859;BME280;36826;47.514;19.056;2022-12-24T07:52:59;99678.56;;;13.11;94.69
50859;BME280;36826;47.514;19.056;2022-12-24T07:55:24;99686.34;;;13.39;94.47
50859;BME280;36826;47.514;19.056;2022-12-24T07:57:50;99682.53;;;13.67;93.94
50859;BME280;36826;47.514;19.056;2022-12-24T08:00:15;99682.78;;;13.30;94.78
50859;BME280;36826;47.514;19.056;2022-12-24T08:02:41;99686.53;;;13.46;94.25
50859;BME280;36826;47.514;19.056;2022-12-24T08:05:07;99694.81;;;13.61;94.06
50859;BME280;36826;47.514;19.056;2022-12-24T08:07:33;99693.44;;;13.90;90.67
50859;BME280;36826;47.514;19.056;2022-12-24T08:09:58;99701.16;;;14.01;91.95
50859;BME280;36826;47.514;19.056;2022-12-24T08:12:23;99699.19;;;13.87;91.99
50859;BME280;36826;47.514;19.056;2022-12-24T08:14:49;99711.59;;;14.13;91.87
50859;BME280;36826;47.514;19.056;2022-12-24T08:17:14;99714.97;;;13.90;91.66
50859;BME280;36826;47.514;19.056;2022-12-24T08:19:40;99724.38;;;14.19;90.23
50859;BME280;36826;47.514;19.056;2022-12-24T08:22:05;99738.84;;;14.18;90.54
50859;BME280;36826;47.514;19.056;2022-12-24T08:24:30;99735.13;;;14.35;89.67
50859;BME280;36826;47.514;19.056;2022-12-24T08:26:57;99731.28;;;14.30;90.00
50859;BME280;36826;47.514;19.056;2022-12-24T08:29:22;99741.88;;;14.31;89.66
50859;BME280;36826;47.514;19.056;2022-12-24T08:31:47;99754.69;;;14.04;92.05
50859;BME280;36826;47.514;19.056;2022-12-24T08:34:13;99755.03;;;14.09;90.93
50859;BME280;36826;47.514;19.056;2022-12-24T08:36:38;99767.63;;;14.42;87.84
50859;BME280;36826;47.514;19.056;2022-12-24T08:39:04;99770.09;;;14.77;88.93
50859;BME280;36826;47.514;19.056;2022-12-24T08:41:32;99778.63;;;14.88;88.93
50859;BME280;36826;47.514;19.056;2022-12-24T08:43:58;99786.91;;;14.87;87.94
50859;BME280;36826;47.514;19.056;2022-12-24T08:46:23;99784.16;;;14.95;87.27
50859;BME280;36826;47.514;19.056;2022-12-24T08:48:48;99789.94;;;14.84;87.07
50859;BME280;36826;47.514;19.056;2022-12-24T08:51:14;99783.56;;;14.68;86.89
50859;BME280;36826;47.514;19.056;2022-12-24T08:53:40;99788.59;;;14.88;86.12
50859;BME280;36826;47.514;19.056;2022-12-24T08:56:07;99784.16;;;14.95;85.75
50859;BME280;36826;47.514;19.056;2022-12-24T08:58:34;99797.25;;;15.15;86.89
50859;BME280;36826;47.514;19.056;2022-12-24T09:01:00;99794.19;;;15.18;85.48
50859;BME280;36826;47.514;19.056;2022-12-24T09:03:25;99798.69;;;15.34;85.16
50859;BME280;36826;47.514;19.056;2022-12-24T09:05:51;99788.72;;;15.34;84.39
50859;BME280;36826;47.514;19.056;2022-12-24T09:08:19;99789.59;;;15.58;84.29
50859;BME280;36826;47.514;19.056;2022-12-24T09:10:45;99794.25;;;15.41;83.38
50859;BME280;36826;47.514;19.056;2022-12-24T09:13:10;99790.19;;;15.45;82.48
50859;BME280;36826;47.514;19.056;2022-12-24T09:15:36;99800.91;;;15.85;83.22
50859;BME280;36826;47.514;19.056;2022-12-24T09:18:01;99816.66;;;16.05;82.04
50859;BME280;36826;47.514;19.056;2022-12-24T09:20:27;99824.34;;;16.16;81.26
50859;BME280;36826;47.514;19.056;2022-12-24T09:22:52;99820.50;;;15.87;79.08
50859;BME280;36826;47.514;19.056;2022-12-24T09:25:18;99816.72;;;16.35;80.40
50859;BME280;36826;47.514;19.056;2022-12-24T09:27:43;99817.69;;;16.42;78.84
50859;BME280;36826;47.514;19.056;2022-12-24T09:30:09;99810.34;;;16.51;77.15
50859;BME280;36826;47.514;19.056;2022-12-24T09:32:35;99820.19;;;16.44;78.84
50859;BME280;36826;47.514;19.056;2022-12-24T09:35:00;99819.91;;;16.77;77.19
50859;BME280;36826;47.514;19.056;2022-12-24T09:37:26;99825.63;;;16.97;76.99
50859;BME280;36826;47.514;19.056;2022-12-24T09:39:51;99822.16;;;17.03;76.01
50859;BME280;36826;47.514;19.056;2022-12-24T09:45:30;99818.91;;;17.23;76.15
50859;BME280;36826;47.514;19.056;2022-12-24T09:48:01;99827.44;;;17.41;73.86
50859;BME280;36826;47.514;19.056;2022-12-24T09:50:39;99819.59;;;17.46;73.90
50859;BME280;36826;47.514;19.056;2022-12-24T09:55:48;99831.72;;;17.51;73.67
50859;BME280;36826;47.514;19.056;2022-12-24T09:58:34;99825.69;;;17.33;72.81
50859;BME280;36826;47.514;19.056;2022-12-24T10:01:01;99820.38;;;17.25;71.10
50859;BME280;36826;47.514;19.056;2022-12-24T10:03:27;99826.19;;;17.07;72.20
50859;BME280;36826;47.514;19.056;2022-12-24T10:06:05;99835.69;;;17.03;71.53
50859;BME280;36826;47.514;19.056;2022-12-24T10:17:09;99824.38;;;17.14;70.76
50859;BME280;36826;47.514;19.056;2022-12-24T10:22:52;99841.75;;;17.20;72.98
50859;BME280;36826;47.514;19.056;2022-12-24T10:25:36;99841.34;;;16.93;70.46
50859;BME280;36826;47.514;19.056;2022-12-24T10:28:13;99844.47;;;17.05;69.85
50859;BME280;36826;47.514;19.056;2022-12-24T10:30:40;99843.69;;;17.41;70.10
50859;BME280;36826;47.514;19.056;2022-12-24T10:33:18;99845.66;;;17.32;68.60
50859;BME280;36826;47.514;19.056;2022-12-24T10:35:47;99841.34;;;17.53;68.76
50859;BME280;36826;47.514;19.056;2022-12-24T10:38:15;99845.34;;;17.42;69.11
50859;BME280;36826;47.514;19.056;2022-12-24T10:40:43;99852.00;;;17.25;67.88
50859;BME280;36826;47.514;19.056;2022-12-24T10:43:15;99849.38;;;17.31;67.76
50859;BME280;36826;47.514;19.056;2022-12-24T10:45:44;99841.75;;;17.35;66.83
50859;BME280;36826;47.514;19.056;2022-12-24T10:48:16;99846.97;;;17.37;66.79
50859;BME280;36826;47.514;19.056;2022-12-24T10:50:56;99847.56;;;17.54;66.84
50859;BME280;36826;47.514;19.056;2022-12-24T10:53:50;99849.91;;;17.57;67.58
50859;BME280;36826;47.514;19.056;2022-12-24T10:56:19;99845.09;;;17.74;66.21
50859;BME280;36826;47.514;19.056;2022-12-24T10:58:51;99857.13;;;17.86;66.47
50859;BME280;36826;47.514;19.056;2022-12-24T11:01:18;99855.22;;;17.65;65.04
50859;BME280;36826;47.514;19.056;2022-12-24T11:03:43;99860.47;;;17.52;65.41
50859;BME280;36826;47.514;19.056;2022-12-24T11:06:11;99860.38;;;17.60;66.27
50859;BME280;36826;47.514;19.056;2022-12-24T11:08:40;99865.25;;;17.35;65.32
50859;BME280;36826;47.514;19.056;2022-12-24T11:11:10;99862.94;;;17.16;65.69
50859;BME280;36826;47.514;19.056;2022-12-24T11:13:40;99868.34;;;17.46;64.65
50859;BME280;36826;47.514;19.056;2022-12-24T11:16:16;99867.34;;;17.69;64.43
50859;BME280;36826;47.514;19.056;2022-12-24T11:18:50;99866.66;;;17.82;62.82
50859;BME280;36826;47.514;19.056;2022-12-24T11:21:27;99875.91;;;17.88;63.63
50859;BME280;36826;47.514;19.056;2022-12-24T11:23:56;99875.03;;;18.02;61.95
50859;BME280;36826;47.514;19.056;2022-12-24T11:26:24;99883.81;;;17.53;62.76
50859;BME280;36826;47.514;19.056;2022-12-24T11:31:37;99889.03;;;17.39;59.83
50859;BME280;36826;47.514;19.056;2022-12-24T11:34:29;99889.03;;;17.39;59.72
50859;BME280;36826;47.514;19.056;2022-12-24T11:37:18;99888.25;;;16.85;57.58
50859;BME280;36826;47.514;19.056;2022-12-24T11:40:21;99890.56;;;16.97;59.19
50859;BME280;36826;47.514;19.056;2022-12-24T11:42:48;99892.50;;;16.65;59.83
50859;BME280;36826;47.514;19.056;2022-12-24T11:45:24;99889.94;;;16.86;58.86
50859;BME280;36826;47.514;19.056;2022-12-24T11:47:50;99893.06;;;16.98;60.24
50859;BME280;36826;47.514;19.056;2022-12-24T11:50:31;99884.75;;;17.00;60.41
50859;BME280;36826;47.514;19.056;2022-12-24T11:58:10;99891.97;;;17.23;58.17
50859;BME280;36826;47.514;19.056;2022-12-24T12:00:40;99885.78;;;17.44;59.58
50859;BME280;36826;47.514;19.056;2022-12-24T12:03:20;99884.28;;;17.11;60.22
50859;BME280;36826;47.514;19.056;2022-12-24T12:05:49;99889.56;;;16.90;59.09
50859;BME280;36826;47.514;19.056;2022-12-24T12:08:19;99899.59;;;17.19;60.17
50859;BME280;36826;47.514;19.056;2022-12-24T12:10:47;99892.59;;;17.25;58.29
50859;BME280;36826;47.514;19.056;2022-12-24T12:13:18;99908.44;;;16.98;60.00
50859;BME280;36826;47.514;19.056;2022-12-24T12:16:06;99910.41;;;16.66;58.75
50859;BME280;36826;47.514;19.056;2022-12-24T12:18:37;99904.00;;;16.67;58.82
50859;BME280;36826;47.514;19.056;2022-12-24T12:21:16;99889.63;;;17.20;58.09
50859;BME280;36826;47.514;19.056;2022-12-24T12:23:46;99893.00;;;17.22;57.88
50859;BME280;36826;47.514;19.056;2022-12-24T12:26:18;99907.91;;;16.64;58.19
50859;BME280;36826;47.514;19.056;2022-12-24T12:28:56;99905.94;;;16.96;58.77
50859;BME280;36826;47.514;19.056;2022-12-24T12:31:35;99907.06;;;17.17;57.50
50859;BME280;36826;47.514;19.056;2022-12-24T12:36:35;99927.22;;;16.76;58.07
50859;BME280;36826;47.514;19.056;2022-12-24T12:39:03;99927.16;;;17.38;56.76
50859;BME280;36826;47.514;19.056;2022-12-24T12:44:48;99942.97;;;16.72;57.15
50859;BME280;36826;47.514;19.056;2022-12-24T12:50:34;99938.34;;;16.58;57.76
50859;BME280;36826;47.514;19.056;2022-12-24T13:01:45;99965.06;;;16.06;57.73
50859;BME280;36826;47.514;19.056;2022-12-24T13:20:51;99968.84;;;15.41;61.57
50859;BME280;36826;47.514;19.056;2022-12-24T13:23:22;99969.72;;;15.81;61.52
50859;BME280;36826;47.514;19.056;2022-12-24T13:26:11;99982.50;;;15.47;61.20
50859;BME280;36826;47.514;19.056;2022-12-24T13:28:37;99979.19;;;15.77;62.14
50859;BME280;36826;47.514;19.056;2022-12-24T13:36:14;99988.22;;;16.01;62.84
50859;BME280;36826;47.514;19.056;2022-12-24T13:49:25;100009.59;;;15.62;64.86
50859;BME280;36826;47.514;19.056;2022-12-24T13:54:46;100008.16;;;15.83;61.60
50859;BME280;36826;47.514;19.056;2022-12-24T14:02:37;100018.19;;;15.74;63.60
50859;BME280;36826;47.514;19.056;2022-12-24T14:05:18;100017.00;;;15.69;63.39
50859;BME280;36826;47.514;19.056;2022-12-24T14:07:46;100016.44;;;15.25;64.32
50859;BME280;36826;47.514;19.056;2022-12-24T14:10:24;100019.91;;;15.50;63.79
50859;BME280;36826;47.514;19.056;2022-12-24T14:12:51;100019.91;;;15.59;63.61
50859;BME280;36826;47.514;19.056;2022-12-24T14:18:23;100035.25;;;15.58;64.58
50859;BME280;36826;47.514;19.056;2022-12-24T14:20:50;100034.13;;;15.36;63.48
50859;BME280;36826;47.514;19.056;2022-12-24T14:23:42;100029.06;;;15.16;63.30
50859;BME280;36826;47.514;19.056;2022-12-24T14:26:21;100036.34;;;15.16;63.44
50859;BME280;36826;47.514;19.056;2022-12-24T14:28:58;100038.66;;;15.36;64.78
50859;BME280;36826;47.514;19.056;2022-12-24T14:31:25;100051.50;;;15.09;65.26
50859;BME280;36826;47.514;19.056;2022-12-24T14:33:50;100048.78;;;15.17;63.70
50859;BME280;36826;47.514;19.056;2022-12-24T14:36:22;100059.06;;;15.46;65.52
50859;BME280;36826;47.514;19.056;2022-12-24T14:38:48;100067.19;;;15.22;66.07
50859;BME280;36826;47.514;19.056;2022-12-24T14:49:27;100082.50;;;15.04;66.15
50859;BME280;36826;47.514;19.056;2022-12-24T14:54:37;100091.94;;;14.84;67.23
50859;BME280;36826;47.514;19.056;2022-12-24T14:59:42;100100.03;;;14.84;68.02